createdAt,value
2022-08-20T00:01:17.060Z,2.57
2022-08-20T00:03:50.266Z,3.70
2022-08-20T00:06:23.935Z,3.40
2022-08-20T00:08:51.723Z,4.60
2022-08-20T00:11:23.550Z,3.40
2022-08-20T00:13:56.183Z,3.90
2022-08-20T00:16:25.921Z,3.87
2022-08-20T00:18:53.283Z,3.80
2022-08-20T00:21:23.259Z,3.90
2022-08-20T00:23:53.303Z,4.97
2022-08-20T00:26:21.722Z,4.90
2022-08-20T00:28:49.275Z,6.00
2022-08-20T00:31:21.867Z,4.57
2022-08-20T00:33:50.122Z,5.13
2022-08-20T00:36:17.748Z,5.43
2022-08-20T00:38:46.790Z,5.40
2022-08-20T00:41:19.034Z,5.07
2022-08-20T00:43:52.293Z,5.70
2022-08-20T00:46:31.877Z,4.67
2022-08-20T00:49:00.064Z,5.53
2022-08-20T00:51:35.213Z,5.27
2022-08-20T00:54:11.397Z,4.77
2022-08-20T00:56:40.975Z,5.20
2022-08-20T00:59:12.148Z,5.60
2022-08-20T01:01:54.962Z,5.30
2022-08-20T01:04:26.539Z,5.30
2022-08-20T01:06:56.969Z,5.57
2022-08-20T01:09:49.706Z,6.53
2022-08-20T01:12:14.602Z,5.20
2022-08-20T01:14:43.649Z,4.93
2022-08-20T01:17:16.045Z,4.70
2022-08-20T01:19:48.200Z,5.23
2022-08-20T01:22:40.226Z,4.90
2022-08-20T01:25:15.544Z,5.30
2022-08-20T01:27:45.230Z,4.73
2022-08-20T01:30:13.432Z,4.70
2022-08-20T01:32:40.725Z,5.23
2022-08-20T01:35:09.450Z,5.77
2022-08-20T01:37:36.615Z,6.63
2022-08-20T01:40:09.198Z,5.33
2022-08-20T01:42:59.168Z,5.70
2022-08-20T01:45:30.946Z,5.37
2022-08-20T01:47:59.235Z,5.93
2022-08-20T01:50:29.270Z,5.80
2022-08-20T01:53:15.102Z,6.93
2022-08-20T01:55:42.723Z,5.67
2022-08-20T01:58:10.571Z,6.83
2022-08-20T02:00:38.148Z,6.53
2022-08-20T02:03:13.401Z,6.67
2022-08-20T02:05:40.521Z,6.03
2022-08-20T02:08:07.741Z,7.10
2022-08-20T02:10:36.157Z,6.87
2022-08-20T02:13:09.260Z,5.97
2022-08-20T02:15:39.721Z,5.83
2022-08-20T02:18:13.340Z,6.80
2022-08-20T02:20:42.036Z,6.57
2022-08-20T02:23:09.621Z,6.47
2022-08-20T02:25:40.328Z,7.10
2022-08-20T02:28:11.031Z,6.90
2022-08-20T02:30:42.235Z,7.07
2022-08-20T02:33:14.121Z,7.03
2022-08-20T02:35:43.320Z,7.20
2022-08-20T02:38:11.079Z,6.80
2022-08-20T02:40:39.871Z,7.30
2022-08-20T02:43:07.049Z,6.40
2022-08-20T02:45:44.146Z,7.17
2022-08-20T02:48:23.651Z,6.70
2022-08-20T02:50:54.532Z,8.03
2022-08-20T02:53:22.577Z,6.50
2022-08-20T02:55:49.987Z,8.23
2022-08-20T02:58:18.421Z,7.30
2022-08-20T03:00:46.599Z,6.33
2022-08-20T03:03:15.272Z,6.83
2022-08-20T03:05:44.446Z,5.43
2022-08-20T03:08:13.482Z,6.37
2022-08-20T03:10:42.995Z,6.53
2022-08-20T03:13:13.617Z,6.83
2022-08-20T03:15:44.372Z,5.87
2022-08-20T03:18:11.620Z,6.83
2022-08-20T03:20:38.994Z,7.40
2022-08-20T03:23:07.401Z,5.17
2022-08-20T03:25:35.281Z,6.50
2022-08-20T03:28:02.757Z,6.23
2022-08-20T03:30:31.263Z,6.30
2022-08-20T03:32:59.466Z,6.13
2022-08-20T03:35:28.586Z,6.53
2022-08-20T03:37:56.307Z,6.80
2022-08-20T03:40:27.699Z,5.23
2022-08-20T03:42:55.224Z,6.13
2022-08-20T03:45:25.834Z,6.60
2022-08-20T03:47:54.974Z,6.00
2022-08-20T03:50:25.554Z,6.17
2022-08-20T03:52:54.458Z,5.57
2022-08-20T03:55:23.951Z,7.03
2022-08-20T03:57:54.476Z,5.80
2022-08-20T04:00:52.904Z,5.90
2022-08-20T04:03:20.188Z,6.50
2022-08-20T04:05:47.533Z,5.43
2022-08-20T04:08:24.527Z,5.70
2022-08-20T04:10:51.854Z,5.53
2022-08-20T04:13:20.728Z,5.43
2022-08-20T04:15:53.646Z,5.40
2022-08-20T04:18:24.167Z,5.23
2022-08-20T04:20:53.230Z,5.63
2022-08-20T04:23:21.416Z,4.80
2022-08-20T04:25:49.516Z,4.93
2022-08-20T04:28:28.575Z,4.73
2022-08-20T04:30:57.938Z,5.23
2022-08-20T04:33:33.333Z,4.77
2022-08-20T04:36:02.919Z,5.23
2022-08-20T04:38:48.522Z,5.00
2022-08-20T04:41:23.578Z,4.47
2022-08-20T04:43:55.402Z,6.00
2022-08-20T04:46:26.070Z,4.90
2022-08-20T04:48:53.787Z,5.20
2022-08-20T04:51:22.994Z,5.33
2022-08-20T04:53:53.313Z,6.13
2022-08-20T04:56:29.758Z,4.90
2022-08-20T04:59:00.159Z,4.93
2022-08-20T05:01:27.855Z,5.50
2022-08-20T05:03:56.006Z,4.27
2022-08-20T05:06:29.286Z,5.10
2022-08-20T05:08:58.286Z,4.50
2022-08-20T05:11:35.457Z,4.93
2022-08-20T05:14:11.479Z,3.93
2022-08-20T05:16:40.669Z,4.00
2022-08-20T05:19:13.241Z,4.10
2022-08-20T05:21:40.582Z,3.93
2022-08-20T05:24:08.295Z,3.97
2022-08-20T05:26:36.035Z,3.90
2022-08-20T05:29:05.369Z,4.67
2022-08-20T05:31:33.849Z,4.47
2022-08-20T05:34:11.003Z,4.27
2022-08-20T05:36:43.483Z,4.50
2022-08-20T05:39:11.286Z,4.63
2022-08-20T05:41:39.734Z,5.37
2022-08-20T05:44:10.993Z,5.13
2022-08-20T05:46:42.866Z,3.67
2022-08-20T05:49:12.015Z,4.30
2022-08-20T05:51:39.481Z,4.17
2022-08-20T05:54:07.645Z,4.60
2022-08-20T05:56:36.051Z,4.10
2022-08-20T05:59:05.379Z,5.80
2022-08-20T06:01:34.269Z,4.40
2022-08-20T06:04:20.637Z,4.50
2022-08-20T06:06:48.632Z,3.80
2022-08-20T06:09:30.965Z,4.40
2022-08-20T06:12:04.331Z,3.60
2022-08-20T06:14:32.359Z,4.27
2022-08-20T06:17:08.573Z,3.87
2022-08-20T06:19:37.576Z,4.67
2022-08-20T06:22:18.011Z,3.83
2022-08-20T06:24:48.888Z,3.93
2022-08-20T06:27:16.814Z,4.10
2022-08-20T06:29:44.040Z,3.20
2022-08-20T06:32:11.683Z,3.20
2022-08-20T06:34:50.335Z,3.33
2022-08-20T06:37:21.948Z,3.50
2022-08-20T06:39:53.165Z,3.50
2022-08-20T06:42:22.001Z,3.10
2022-08-20T06:44:50.348Z,3.90
2022-08-20T06:47:20.954Z,3.47
2022-08-20T06:49:48.995Z,3.30
2022-08-20T06:52:17.274Z,3.40
2022-08-20T06:54:45.780Z,4.33
2022-08-20T06:57:13.395Z,4.53
2022-08-20T06:59:41.918Z,3.80
2022-08-20T07:02:09.254Z,4.53
2022-08-20T07:04:37.712Z,3.67
2022-08-20T07:07:05.109Z,3.40
2022-08-20T07:09:32.356Z,4.07
2022-08-20T07:11:59.544Z,3.40
2022-08-20T07:14:27.251Z,3.53
2022-08-20T07:16:54.538Z,3.73
2022-08-20T07:19:21.867Z,3.87
2022-08-20T07:21:50.829Z,3.70
2022-08-20T07:24:18.034Z,3.47
2022-08-20T07:26:45.244Z,2.90
2022-08-20T07:29:12.581Z,3.20
2022-08-20T07:31:58.264Z,3.60
2022-08-20T07:34:25.494Z,3.20
2022-08-20T07:36:52.748Z,3.53
2022-08-20T07:39:22.103Z,3.77
2022-08-20T07:42:03.195Z,3.67
2022-08-20T07:44:31.381Z,3.73
2022-08-20T07:46:59.636Z,3.57
2022-08-20T07:49:26.793Z,3.60
2022-08-20T07:51:53.942Z,3.70
2022-08-20T07:54:21.174Z,3.10
2022-08-20T07:56:49.614Z,3.80
2022-08-20T07:59:17.762Z,3.50
2022-08-20T08:01:44.873Z,3.63
2022-08-20T08:04:12.057Z,3.03
2022-08-20T08:06:39.864Z,3.20
2022-08-20T08:09:13.917Z,2.80
2022-08-20T08:11:50.561Z,2.97
2022-08-20T08:14:23.671Z,3.00
2022-08-20T08:16:51.645Z,2.83
2022-08-20T08:19:19.372Z,2.40
2022-08-20T08:21:46.780Z,3.00
2022-08-20T08:24:20.307Z,2.87
2022-08-20T08:26:50.281Z,3.30
2022-08-20T08:29:17.690Z,3.27
2022-08-20T08:31:45.098Z,2.70
2022-08-20T08:34:13.094Z,2.67
2022-08-20T08:36:40.698Z,2.40
2022-08-20T08:39:07.963Z,2.47
2022-08-20T08:41:40.547Z,3.00
2022-08-20T08:44:14.277Z,2.90
2022-08-20T08:46:46.219Z,2.43
2022-08-20T08:49:20.506Z,2.00
2022-08-20T08:51:59.169Z,2.73
2022-08-20T08:54:31.487Z,2.70
2022-08-20T08:56:59.991Z,3.23
2022-08-20T08:59:46.213Z,2.60
2022-08-20T09:02:25.634Z,2.10
2022-08-20T09:04:56.138Z,2.10
2022-08-20T09:07:26.424Z,2.27
2022-08-20T09:09:53.796Z,2.63
2022-08-20T09:12:23.441Z,2.00
2022-08-20T09:14:51.781Z,2.20
2022-08-20T09:17:21.542Z,4.00
2022-08-20T09:19:50.305Z,3.37
2022-08-20T09:22:21.576Z,2.27
2022-08-20T09:24:49.900Z,2.50
2022-08-20T09:27:17.314Z,3.13
2022-08-20T09:29:45.797Z,2.87
2022-08-20T09:32:21.300Z,2.60
2022-08-20T09:34:56.399Z,2.57
2022-08-20T09:37:32.428Z,1.83
2022-08-20T09:40:02.881Z,2.40
2022-08-20T09:42:33.763Z,1.83
